»·PEaware :: N132BU KWJF-KSNA

N132BU :: KWJF-KSNA

FLIGHT INFORMATION

Flight Status: Arrived
Operator: Privately registered:
United States
More flights under this callsign
Pilot: Oliver B. (21155)
Aircraft: PIPER PA-46-310/350P MALIBU MIRAGE
(PA46)
More flights by this aircraft type
Origin: KWJF Gen Fox
United States
Destination: KSNA John Wayne-Orange Co
United States
More flights between these airports :: More routes between these airports
Route: +PMD V201 BERRI V459 SLI
File this flight plan on PilotEdge
Remarks:
Altitude:
(Current/Filed)
11,000ft
Speed:
(Current/Filed)
150kts
Departed: 01-May-19 10:05 AM
Arrived: 01-May-19 10:55 AM
Distance/Time
Traveled:
66nm/0:50
Distance/Time
To Go:
Arrived

Flight Plot

Page will automatically refresh every two minutes.


Map Options




Map Legend


Flown Route
Filed Route
Departure Airport
Arrival Airport
Navaid (VOR, NDB)
Fix

Horizontal Profiles

Position Reports

Time Latitude Longitude Heading Altitude Ground
Speed
01-May-19 09:30 34.739012 -118.218787 252 2352ft 0kts
01-May-19 09:31 34.739012 -118.218787 252 2351ft 0kts
01-May-19 09:32 34.739012 -118.218787 252 2351ft 0kts
01-May-19 09:33 34.739012 -118.218787 252 2351ft 0kts
01-May-19 09:34 34.739012 -118.218787 252 2351ft 0kts
01-May-19 09:35 34.739012 -118.218787 252 2351ft 0kts
01-May-19 09:36 34.739012 -118.218787 252 2351ft 0kts
01-May-19 09:37 34.739012 -118.218787 252 2351ft 0kts
01-May-19 09:38 34.739012 -118.218787 252 2351ft 0kts
01-May-19 09:39 34.739012 -118.218787 252 2351ft 0kts
01-May-19 09:40 34.739012 -118.218787 252 2351ft 0kts
01-May-19 09:41 34.739012 -118.218787 252 2351ft 0kts
01-May-19 09:42 34.739012 -118.218787 252 2351ft 0kts
01-May-19 09:43 34.739012 -118.218787 252 2351ft 0kts
01-May-19 09:44 34.739012 -118.218787 252 2351ft 0kts
01-May-19 09:45 34.739012 -118.218787 252 2351ft 0kts
01-May-19 09:46 34.739012 -118.218787 252 2351ft 0kts
01-May-19 09:47 34.739012 -118.218787 252 2351ft 0kts
01-May-19 09:48 34.739012 -118.218787 252 2351ft 0kts
01-May-19 09:49 34.739012 -118.218787 252 2351ft 0kts
01-May-19 09:50 34.739012 -118.218787 252 2351ft 0kts
01-May-19 09:51 34.739012 -118.218787 252 2351ft 0kts
01-May-19 09:52 34.739012 -118.218787 252 2351ft 0kts
01-May-19 09:53 34.739012 -118.218787 252 2351ft 0kts
01-May-19 09:54 34.739012 -118.218787 252 2351ft 0kts
01-May-19 09:55 34.739011 -118.218788 251 2351ft 0kts
01-May-19 09:56 34.740458 -118.216197 73 2351ft 13kts
01-May-19 09:57 30.499342 -86.511286 192 92ft 0kts
01-May-19 09:59 34.743981 -118.207636 252 2351ft 0kts
01-May-19 10:00 34.743979 -118.207644 251 2351ft 0kts
01-May-19 10:01 34.743979 -118.207644 251 2351ft 0kts
01-May-19 10:02 34.743979 -118.207644 251 2351ft 0kts
01-May-19 10:03 34.743979 -118.207644 251 2351ft 0kts
01-May-19 10:04 34.739970 -118.222903 253 2369ft 118kts
01-May-19 10:05 34.723970 -118.244028 128 3722ft 117kts
01-May-19 10:06 34.725313 -118.213994 81 4955ft 124kts
01-May-19 10:07 34.719349 -118.178285 112 6060ft 158kts
01-May-19 10:08 34.698376 -118.144767 138 6588ft 187kts
01-May-19 10:09 34.662063 -118.102018 132 7220ft 196kts
01-May-19 10:10 34.623765 -118.054349 132 7980ft 197kts
01-May-19 10:11 34.584287 -118.054969 301 8943ft 192kts
01-May-19 10:12 34.569933 -118.076004 250 9824ft 176kts
01-May-19 10:13 34.549866 -118.118504 219 10975ft 136kts
01-May-19 10:14 34.506770 -118.143607 201 10567ft 192kts
01-May-19 10:15 34.457360 -118.157407 195 11003ft 182kts
01-May-19 10:16 34.407392 -118.174286 204 10989ft 190kts
01-May-19 10:17 34.357217 -118.196173 204 10986ft 192kts
01-May-19 10:18 34.307266 -118.219500 207 10985ft 191kts
01-May-19 10:19 34.258326 -118.244481 207 10984ft 191kts
01-May-19 10:20 34.209309 -118.269486 207 10993ft 191kts
01-May-19 10:21 34.159125 -118.259880 156 10994ft 204kts
01-May-19 10:22 34.106245 -118.235151 164 10986ft 203kts
01-May-19 10:23 34.053844 -118.209042 157 10984ft 204kts
01-May-19 10:24 34.002856 -118.177868 156 10987ft 204kts
01-May-19 10:25 33.958186 -118.152464 159 10992ft 204kts
01-May-19 10:26 33.906345 -118.123904 158 10993ft 204kts
01-May-19 10:27 33.851951 -118.122793 191 10641ft 200kts
01-May-19 10:28 33.797352 -118.132334 191 9820ft 194kts
01-May-19 10:29 33.744502 -118.143578 191 8996ft 190kts
01-May-19 10:30 33.693368 -118.155947 191 8315ft 185kts
01-May-19 10:31 33.643383 -118.168384 191 7659ft 183kts
01-May-19 10:32 33.594029 -118.180861 191 7092ft 177kts
01-May-19 10:33 33.547208 -118.181283 127 6850ft 179kts
01-May-19 10:34 33.566466 -118.134304 37 6065ft 178kts
01-May-19 10:35 33.605163 -118.099433 36 5237ft 171kts
01-May-19 10:36 33.641226 -118.066903 36 5003ft 155kts
01-May-19 10:37 33.676045 -118.035520 36 5001ft 157kts
01-May-19 10:38 33.711060 -118.003992 36 4999ft 157kts
01-May-19 10:39 33.746172 -117.972405 36 4999ft 157kts
01-May-19 10:40 33.781332 -117.940809 36 4999ft 157kts
01-May-19 10:41 33.816413 -117.909324 36 4999ft 157kts
01-May-19 10:42 33.851513 -117.877788 36 4999ft 157kts
01-May-19 10:43 33.886719 -117.845985 40 5000ft 157kts
01-May-19 10:44 33.892026 -117.794034 91 4458ft 163kts
01-May-19 10:45 33.890406 -117.740706 91 4040ft 152kts
01-May-19 10:46 33.861823 -117.733291 211 4010ft 137kts
01-May-19 10:47 33.829317 -117.757140 211 4003ft 136kts
01-May-19 10:48 33.803425 -117.789046 209 3697ft 139kts
01-May-19 10:49 33.772848 -117.810003 208 2200ft 111kts
01-May-19 10:50 33.747306 -117.824229 210 1386ft 103kts
01-May-19 10:51 33.729897 -117.835863 207 1005ft 106kts
01-May-19 10:52 33.703600 -117.851782 207 483ft 94kts
01-May-19 10:53 33.681516 -117.865306 209 60ft 73kts
01-May-19 10:54 33.677344 -117.868390 269 59ft 0kts

Navigation Log

Ident Type
Flight plan parsing failed, navigation log unavailable